Time;durP1;ratioP1;P1;durP2;ratioP2;P2;SDS_P1;SDS_P2;PMS_P1;PMS_P2;Temp;Humidity;BMP_temperature;BMP_pressure;BME280_temperature;BME280_humidity;BME280_pressure;Samples;Min_cycle;Max_cycle;Signal;HPM_P1;HPM_P2
2023/06/18 00:01:58;;;;;;;55.65;14.52;;;;;;;16.36;94.23;100297.31;4955980;29;20059;-46
2023/06/18 00:04:28;;;;;;;69.40;15.00;;;;;;;16.33;94.45;100292.56;4955938;28;20521;-46
2023/06/18 00:06:55;;;;;;;69.90;16.80;;;;;;;16.32;94.58;100295.72;4953709;29;20047;-46
2023/06/18 00:09:22;;;;;;;47.97;15.50;;;;;;;16.29;94.76;100290.91;4951540;29;20073;-46
2023/06/18 00:11:50;;;;;;;89.03;17.00;;;;;;;16.29;95.01;100291.72;4953983;29;20047;-45
2023/06/18 00:14:17;;;;;;;74.43;16.95;;;;;;;16.29;95.00;100280.56;4955131;29;20122;-46
2023/06/18 00:17:02;;;;;;;87.53;17.20;;;;;;;16.30;95.03;100284.97;4955931;29;20079;-46
2023/06/18 00:19:30;;;;;;;88.03;17.92;;;;;;;16.26;95.15;100286.94;4956032;29;20051;-46
2023/06/18 00:21:59;;;;;;;59.85;17.27;;;;;;;16.23;95.28;100284.91;4955783;29;20050;-46
2023/06/18 00:24:26;;;;;;;60.97;16.98;;;;;;;16.22;95.63;100276.94;4948834;29;20043;-47
2023/06/18 00:26:52;;;;;;;70.53;17.13;;;;;;;16.25;96.03;100273.38;4930693;29;20039;-47
2023/06/18 00:29:20;;;;;;;64.95;18.65;;;;;;;16.28;96.07;100267.75;4955915;29;20146;-46
2023/06/18 00:31:47;;;;;;;78.70;17.25;;;;;;;16.31;96.29;100283.75;4955590;29;20047;-45
2023/06/18 00:34:32;;;;;;;43.40;15.25;;;;;;;16.35;96.39;100283.75;4954147;29;20043;-46
2023/06/18 00:37:20;;;;;;;63.22;16.42;;;;;;;16.42;96.44;100292.97;4942870;29;20039;-46
2023/06/18 00:39:47;;;;;;;88.30;19.50;;;;;;;16.44;96.41;100292.59;4955467;29;20043;-47
2023/06/18 00:42:15;;;;;;;42.28;17.05;;;;;;;16.45;96.55;100294.16;4954646;29;20092;-47
2023/06/18 00:44:42;;;;;;;31.42;17.20;;;;;;;16.47;96.61;100291.00;4955577;29;20188;-49
2023/06/18 00:47:13;;;;;;;40.33;18.55;;;;;;;16.50;96.75;100295.75;4955320;29;20054;-46
2023/06/18 00:49:44;;;;;;;38.53;17.87;;;;;;;16.51;96.86;100291.78;4955098;29;20117;-46
2023/06/18 00:52:14;;;;;;;37.53;19.33;;;;;;;16.51;96.84;100292.59;4955584;29;20039;-46
2023/06/18 00:54:44;;;;;;;37.40;17.95;;;;;;;16.53;96.92;100289.41;4955567;29;20035;-46
2023/06/18 00:57:15;;;;;;;33.97;17.65;;;;;;;16.52;96.65;100304.56;4955214;29;20039;-46
2023/06/18 00:59:42;;;;;;;34.63;18.25;;;;;;;16.49;96.83;100294.19;4942069;28;20114;-48
2023/06/18 01:02:28;;;;;;;35.72;17.20;;;;;;;16.49;96.67;100291.38;4948801;29;20051;-46
2023/06/18 01:05:03;;;;;;;36.42;18.65;;;;;;;16.48;96.94;100298.16;4955181;29;20051;-46
2023/06/18 01:07:33;;;;;;;36.65;18.58;;;;;;;16.47;97.02;100291.75;4954626;29;20110;-46
2023/06/18 01:10:06;;;;;;;41.45;19.58;;;;;;;16.47;97.22;100288.19;4955053;29;20098;-47
2023/06/18 01:12:34;;;;;;;37.53;18.50;;;;;;;16.48;97.32;100286.97;4954935;29;20047;-46
2023/06/18 01:15:01;;;;;;;36.33;18.40;;;;;;;16.47;97.36;100291.75;4954136;29;20047;-46
2023/06/18 01:17:33;;;;;;;40.55;17.83;;;;;;;16.45;97.48;100291.38;4954526;29;20047;-46
2023/06/18 01:20:12;;;;;;;37.07;16.93;;;;;;;16.43;97.64;100286.19;4954976;29;20063;-46
2023/06/18 01:22:46;;;;;;;42.75;17.35;;;;;;;16.44;97.96;100284.97;4954818;29;20300;-46
2023/06/18 01:25:14;;;;;;;55.72;16.70;;;;;;;16.45;97.93;100289.38;4954942;29;20615;-46
2023/06/18 01:27:46;;;;;;;74.15;18.25;;;;;;;16.47;98.11;100291.00;4954765;29;20051;-46
2023/06/18 01:30:14;;;;;;;90.47;16.98;;;;;;;16.45;98.13;100289.38;4953120;29;20071;-46
2023/06/18 01:32:45;;;;;;;59.10;16.65;;;;;;;16.46;98.08;100290.19;4944521;29;20047;-46
2023/06/18 01:35:16;;;;;;;75.07;16.45;;;;;;;16.48;98.11;100282.19;4950938;29;20051;-47
2023/06/18 01:38:01;;;;;;;63.00;15.07;;;;;;;16.47;98.36;100277.78;4954922;29;20047;-46
2023/06/18 01:40:49;;;;;;;72.85;19.02;;;;;;;16.47;98.37;100274.22;4954255;29;20050;-46
2023/06/18 01:43:36;;;;;;;46.60;16.27;;;;;;;16.50;98.52;100274.22;4954323;29;20442;-46
2023/06/18 01:46:10;;;;;;;42.58;14.88;;;;;;;16.53;98.48;100278.22;4954279;29;20074;-46
2023/06/18 01:48:44;;;;;;;43.63;16.10;;;;;;;16.54;98.46;100268.66;4940705;29;20531;-46
2023/06/18 01:51:15;;;;;;;38.53;15.70;;;;;;;16.54;98.46;100274.25;4954190;29;20497;-46
2023/06/18 01:53:43;;;;;;;37.30;14.77;;;;;;;16.54;98.54;100269.47;4954304;29;20409;-46
2023/06/18 01:56:32;;;;;;;37.90;16.10;;;;;;;16.54;98.46;100263.06;4952982;29;20569;-46
2023/06/18 01:59:20;;;;;;;44.97;18.75;;;;;;;16.55;98.46;100264.69;4932433;29;20074;-47
2023/06/18 02:01:47;;;;;;;40.97;17.33;;;;;;;16.55;98.46;100267.47;4930076;29;20071;-46
2023/06/18 02:04:17;;;;;;;42.03;18.45;;;;;;;16.53;98.74;100267.84;4934714;29;20054;-47
2023/06/18 02:06:45;;;;;;;60.40;19.30;;;;;;;16.52;98.66;100262.66;4933450;29;20051;-46
2023/06/18 02:09:11;;;;;;;45.80;19.73;;;;;;;16.52;98.83;100259.84;4934517;29;20044;-46
2023/06/18 02:11:38;;;;;;;32.90;18.90;;;;;;;16.51;98.98;100258.25;4933041;29;20051;-46
2023/06/18 02:14:05;;;;;;;35.35;19.27;;;;;;;16.50;99.16;100253.84;4934238;29;20052;-46
2023/06/18 02:16:32;;;;;;;35.75;19.77;;;;;;;16.48;99.33;100253.44;4935058;29;20047;-46
2023/06/18 02:18:59;;;;;;;30.42;18.25;;;;;;;16.50;99.53;100246.25;4934403;29;20047;-46
2023/06/18 02:21:26;;;;;;;31.30;18.00;;;;;;;16.53;99.45;100248.28;4934433;29;20099;-46
2023/06/18 02:23:54;;;;;;;34.83;19.40;;;;;;;16.55;99.32;100247.91;4933447;29;20509;-48
2023/06/18 02:26:21;;;;;;;35.67;19.40;;;;;;;16.56;99.21;100239.13;4934669;29;20059;-46
2023/06/18 02:28:54;;;;;;;38.70;19.20;;;;;;;16.54;99.09;100229.53;4917031;29;20062;-46
2023/06/18 02:31:21;;;;;;;37.72;20.30;;;;;;;16.53;99.44;100234.31;4917434;29;20455;-46
2023/06/18 02:33:48;;;;;;;34.50;20.67;;;;;;;16.52;99.34;100231.91;4916723;29;20379;-46
2023/06/18 02:36:17;;;;;;;37.25;20.58;;;;;;;16.48;99.66;100228.28;4934216;29;20371;-46
2023/06/18 02:38:44;;;;;;;49.47;22.42;;;;;;;16.43;99.85;100227.50;4931748;29;20510;-46
2023/06/18 02:41:11;;;;;;;45.85;19.65;;;;;;;16.41;99.92;100227.09;4933389;29;20062;-46
2023/06/18 02:43:39;;;;;;;39.28;18.63;;;;;;;16.41;100.00;100221.50;4934162;29;20063;-48
2023/06/18 02:46:06;;;;;;;37.20;20.55;;;;;;;16.41;100.00;100227.09;4917643;29;20103;-46
2023/06/18 02:48:32;;;;;;;41.58;20.13;;;;;;;16.37;100.00;100228.28;4934299;29;20573;-46
2023/06/18 02:50:59;;;;;;;36.92;18.15;;;;;;;16.35;100.00;100220.31;4933999;29;20047;-46
2023/06/18 02:53:26;;;;;;;37.08;17.17;;;;;;;16.36;100.00;100221.13;4933996;29;20402;-46
2023/06/18 02:55:53;;;;;;;41.72;19.00;;;;;;;16.37;100.00;100223.50;4934329;29;20048;-47
2023/06/18 02:58:27;;;;;;;39.40;18.65;;;;;;;16.37;100.00;100219.91;4932209;29;20391;-46
2023/06/18 03:00:59;;;;;;;41.17;18.92;;;;;;;16.37;100.00;100222.69;4969012;23;20679;-48
2023/06/18 03:03:26;;;;;;;45.42;19.77;;;;;;;16.40;100.00;100228.28;4915122;29;20471;-46
2023/06/18 03:05:53;;;;;;;43.78;17.75;;;;;;;16.42;100.00;100222.31;4914500;29;20565;-47
2023/06/18 03:08:20;;;;;;;78.97;21.77;;;;;;;16.44;100.00;100226.28;4915071;29;20040;-46
2023/06/18 03:10:47;;;;;;;51.63;18.67;;;;;;;16.46;100.00;100228.72;4914808;29;20058;-46
2023/06/18 03:13:14;;;;;;;79.53;22.38;;;;;;;16.42;99.86;100223.09;4913497;29;20048;-45
2023/06/18 03:15:41;;;;;;;69.82;23.25;;;;;;;16.40;99.88;100222.72;4912660;29;20558;-47
2023/06/18 03:18:08;;;;;;;60.85;22.40;;;;;;;16.41;100.00;100218.69;4915326;29;20040;-49
2023/06/18 03:20:35;;;;;;;53.33;20.42;;;;;;;16.41;100.00;100215.91;4914682;29;20083;-47
2023/06/18 03:23:01;;;;;;;74.65;20.35;;;;;;;16.35;100.00;100217.53;4914810;29;20048;-46
2023/06/18 03:25:28;;;;;;;56.67;21.05;;;;;;;16.30;100.00;100217.91;4918612;29;20494;-46
2023/06/18 03:27:55;;;;;;;75.00;19.95;;;;;;;16.28;100.00;100217.47;4918750;29;20124;-46
2023/06/18 03:30:22;;;;;;;72.50;18.92;;;;;;;16.23;100.00;100217.88;4918392;29;20104;-46
2023/06/18 03:32:50;;;;;;;95.82;19.80;;;;;;;16.16;100.00;100209.50;4917912;29;20045;-46
2023/06/18 03:35:18;;;;;;;79.25;20.00;;;;;;;16.13;100.00;100201.91;4918473;29;20048;-45
2023/06/18 03:37:45;;;;;;;94.03;19.08;;;;;;;16.11;100.00;100201.50;4918500;29;20510;-46
2023/06/18 03:40:12;;;;;;;84.90;19.25;;;;;;;16.10;100.00;100199.91;4918538;29;20673;-46
2023/06/18 03:42:39;;;;;;;63.75;22.13;;;;;;;16.08;100.00;100202.28;4917818;29;20494;-46
2023/06/18 03:45:06;;;;;;;80.22;19.73;;;;;;;16.12;100.00;100205.09;4917956;29;20139;-47
2023/06/18 03:47:33;;;;;;;135.52;20.65;;;;;;;16.09;100.00;100203.91;4917728;29;20056;-46
2023/06/18 03:50:00;;;;;;;51.90;19.13;;;;;;;16.05;100.00;100202.28;4917832;29;20143;-47
2023/06/18 03:52:27;;;;;;;68.97;20.33;;;;;;;16.05;100.00;100196.69;4918161;29;20086;-46
2023/06/18 03:54:54;;;;;;;67.97;20.17;;;;;;;16.09;100.00;100203.91;4918072;29;20092;-46
2023/06/18 03:57:23;;;;;;;67.40;19.17;;;;;;;16.08;100.00;100202.28;4918361;29;20072;-46
2023/06/18 03:59:51;;;;;;;48.20;20.27;;;;;;;16.10;100.00;100213.84;4917846;29;20051;-47
2023/06/18 04:02:19;;;;;;;41.97;17.30;;;;;;;16.10;100.00;100202.69;4917829;29;20059;-46
2023/06/18 04:04:46;;;;;;;41.88;16.52;;;;;;;16.09;100.00;100205.88;4915696;29;20128;-46
2023/06/18 04:07:13;;;;;;;69.57;17.80;;;;;;;16.07;100.00;100203.47;4912447;29;20047;-46
2023/06/18 04:09:40;;;;;;;44.63;16.80;;;;;;;16.07;100.00;100205.50;4918098;29;20043;-46
2023/06/18 04:12:07;;;;;;;37.70;16.20;;;;;;;16.09;100.00;100203.91;4917878;29;20685;-46
2023/06/18 04:14:34;;;;;;;42.20;17.02;;;;;;;16.14;100.00;100202.72;4916753;29;20044;-46
2023/06/18 04:17:01;;;;;;;42.47;16.95;;;;;;;16.15;100.00;100199.50;4917850;29;20056;-47
2023/06/18 04:19:28;;;;;;;41.83;16.33;;;;;;;16.15;100.00;100216.25;4917906;29;20048;-46
2023/06/18 04:21:55;;;;;;;39.83;16.23;;;;;;;16.14;100.00;100206.31;4916758;29;20048;-45
2023/06/18 04:24:22;;;;;;;39.17;16.40;;;;;;;16.12;100.00;100208.69;4917584;29;20147;-46
2023/06/18 04:26:48;;;;;;;49.08;15.45;;;;;;;16.12;100.00;100202.31;4917587;29;20073;-49
2023/06/18 04:29:15;;;;;;;47.40;15.10;;;;;;;16.09;100.00;100208.69;4917855;29;20813;-48
2023/06/18 04:31:42;;;;;;;52.15;14.88;;;;;;;16.08;100.00;100207.88;4917279;29;20052;-47
2023/06/18 04:34:09;;;;;;;74.78;17.83;;;;;;;16.10;100.00;100207.47;4917542;29;20055;-46
2023/06/18 04:36:36;;;;;;;51.38;15.98;;;;;;;16.08;100.00;100199.50;4916408;29;20063;-46
2023/06/18 04:39:03;;;;;;;40.83;15.50;;;;;;;16.07;100.00;100200.69;4916805;29;20048;-46
2023/06/18 04:41:30;;;;;;;40.42;16.73;;;;;;;16.10;100.00;100208.28;4917037;29;20048;-47
2023/06/18 04:43:57;;;;;;;42.15;16.02;;;;;;;16.13;100.00;100209.47;4916446;29;20040;-46
2023/06/18 04:46:23;;;;;;;38.55;17.00;;;;;;;16.14;100.00;100205.50;4917176;29;20047;-46
2023/06/18 04:48:51;;;;;;;38.92;16.83;;;;;;;16.16;100.00;100203.09;4917437;29;20048;-46
2023/06/18 04:51:18;;;;;;;32.25;15.13;;;;;;;16.19;100.00;100205.91;4917142;29;20073;-46
2023/06/18 04:53:45;;;;;;;38.70;16.73;;;;;;;16.23;100.00;100200.34;4917133;29;20062;-46
2023/06/18 04:56:13;;;;;;;35.78;15.30;;;;;;;16.24;100.00;100199.94;4916282;29;20098;-46
2023/06/18 04:58:40;;;;;;;35.33;17.60;;;;;;;16.25;100.00;100209.91;4900192;29;20529;-47
2023/06/18 05:01:08;;;;;;;38.15;18.65;;;;;;;16.25;100.00;100195.97;4899937;29;20052;-49
2023/06/18 05:03:36;;;;;;;35.75;16.58;;;;;;;16.26;100.00;100205.91;4917067;29;20402;-47
2023/06/18 05:06:03;;;;;;;36.65;17.05;;;;;;;16.29;100.00;100199.53;4907377;29;20459;-47
2023/06/18 05:08:31;;;;;;;41.38;15.63;;;;;;;16.31;100.00;100210.31;4916962;29;20159;-46
2023/06/18 05:10:57;;;;;;;39.38;17.48;;;;;;;16.31;100.00;100211.09;4917252;29;20127;-46
2023/06/18 05:13:24;;;;;;;56.13;16.85;;;;;;;16.32;100.00;100206.31;4915581;29;20051;-47
2023/06/18 05:15:51;;;;;;;44.95;16.80;;;;;;;16.31;100.00;100205.53;4916730;29;20401;-46
2023/06/18 05:18:18;;;;;;;49.95;16.73;;;;;;;16.34;100.00;100215.91;4916715;29;20067;-46
2023/06/18 05:20:45;;;;;;;80.18;17.38;;;;;;;16.32;100.00;100212.72;4916856;29;20080;-48
2023/06/18 05:23:12;;;;;;;43.25;16.92;;;;;;;16.27;100.00;100207.53;4916357;29;20045;-46
2023/06/18 05:25:39;;;;;;;42.78;17.85;;;;;;;16.27;100.00;100215.09;4916419;29;20044;-46
2023/06/18 05:28:07;;;;;;;38.78;17.30;;;;;;;16.27;100.00;100215.91;4916593;29;20048;-46
2023/06/18 05:30:33;;;;;;;47.08;18.02;;;;;;;16.30;100.00;100215.13;4898783;29;20104;-46
2023/06/18 05:33:00;;;;;;;46.63;20.02;;;;;;;16.33;100.00;100214.31;4916825;29;20401;-46
2023/06/18 05:35:27;;;;;;;37.90;20.05;;;;;;;16.36;100.00;100209.94;4916166;29;20071;-46
2023/06/18 05:37:54;;;;;;;42.65;19.63;;;;;;;16.38;100.00;100208.34;4899276;29;20051;-46
2023/06/18 05:40:21;;;;;;;41.92;21.52;;;;;;;16.41;100.00;100199.13;4916363;29;20044;-47
2023/06/18 05:42:49;;;;;;;44.75;19.58;;;;;;;16.41;100.00;100207.53;4915159;29;20102;-46
2023/06/18 05:45:16;;;;;;;43.10;19.02;;;;;;;16.40;100.00;100203.16;4916095;29;20121;-47
2023/06/18 05:47:42;;;;;;;42.17;20.95;;;;;;;16.40;100.00;100208.75;4915222;29;20116;-46
2023/06/18 05:50:09;;;;;;;42.22;22.05;;;;;;;16.43;100.00;100212.72;4915931;29;20041;-46
2023/06/18 05:52:37;;;;;;;46.05;20.98;;;;;;;16.43;100.00;100204.34;4916460;29;20062;-46
2023/06/18 05:55:08;;;;;;;37.70;19.95;;;;;;;16.38;100.00;100199.16;4915923;29;20322;-48
2023/06/18 05:57:36;;;;;;;35.45;19.10;;;;;;;16.40;100.00;100208.75;4899001;29;20546;-46
2023/06/18 06:00:03;;;;;;;38.63;21.02;;;;;;;16.47;100.00;100201.56;4915988;29;20506;-46
2023/06/18 06:02:31;;;;;;;37.55;19.02;;;;;;;16.50;100.00;100206.34;4916079;29;20155;-46
2023/06/18 06:04:58;;;;;;;37.30;20.67;;;;;;;16.53;100.00;100217.56;4911684;29;20050;-46
2023/06/18 06:07:25;;;;;;;39.50;20.67;;;;;;;16.56;100.00;100213.16;4915670;29;20052;-46
2023/06/18 06:09:51;;;;;;;38.22;23.25;;;;;;;16.58;100.00;100210.75;4915633;29;20487;-46
2023/06/18 06:12:18;;;;;;;32.60;20.35;;;;;;;16.61;100.00;100215.56;4914998;29;20530;-46
2023/06/18 06:14:45;;;;;;;34.88;20.55;;;;;;;16.60;100.00;100220.34;4915587;29;20056;-46
2023/06/18 06:17:12;;;;;;;33.78;19.95;;;;;;;16.64;100.00;100200.78;4915472;29;20738;-46
2023/06/18 06:19:39;;;;;;;38.42;21.35;;;;;;;16.67;100.00;100211.19;4915811;29;20089;-46
2023/06/18 06:22:05;;;;;;;35.88;20.48;;;;;;;16.70;100.00;100211.19;4914941;29;20047;-46
2023/06/18 06:24:32;;;;;;;36.10;19.88;;;;;;;16.74;100.00;100205.59;4915408;29;20491;-48
2023/06/18 06:26:59;;;;;;;36.25;20.00;;;;;;;16.75;100.00;100209.97;4915377;29;20063;-46
2023/06/18 06:29:26;;;;;;;28.20;18.27;;;;;;;16.79;100.00;100202.38;4898387;29;20037;-46
2023/06/18 06:31:53;;;;;;;38.28;19.55;;;;;;;16.80;100.00;100204.78;4915526;29;20044;-47
2023/06/18 06:34:21;;;;;;;32.40;18.95;;;;;;;16.83;100.00;100198.41;4915222;29;20048;-46
2023/06/18 06:36:49;;;;;;;32.78;18.48;;;;;;;16.84;100.00;100201.97;4915393;29;20080;-46
2023/06/18 06:39:18;;;;;;;28.63;18.30;;;;;;;16.85;100.00;100206.38;4914503;29;20036;-46
2023/06/18 06:41:45;;;;;;;30.20;17.10;;;;;;;16.85;100.00;100201.59;4912817;29;20048;-47
2023/06/18 06:44:12;;;;;;;29.77;16.92;;;;;;;16.88;100.00;100205.59;4914012;29;20073;-46
2023/06/18 06:46:39;;;;;;;29.58;16.77;;;;;;;16.90;100.00;100208.78;4914925;29;20490;-47
2023/06/18 06:49:07;;;;;;;28.60;17.65;;;;;;;16.89;100.00;100201.59;4915257;29;20048;-46
2023/06/18 06:51:35;;;;;;;30.10;17.17;;;;;;;16.89;100.00;100207.19;4915319;29;20095;-46
2023/06/18 06:54:03;;;;;;;26.45;15.73;;;;;;;16.88;100.00;100211.97;4915119;29;20076;-46
2023/06/18 06:56:30;;;;;;;31.15;17.63;;;;;;;16.89;100.00;100213.56;4914068;29;20052;-46
2023/06/18 06:58:58;;;;;;;31.13;18.45;;;;;;;16.93;100.00;100214.38;4914676;29;20044;-47
2023/06/18 07:01:25;;;;;;;28.10;15.90;;;;;;;16.99;100.00;100211.97;4914401;29;20108;-46
2023/06/18 07:03:51;;;;;;;23.95;14.93;;;;;;;17.02;100.00;100208.38;4914842;29;20130;-48
2023/06/18 07:06:20;;;;;;;25.33;14.73;;;;;;;17.03;100.00;100212.75;4914820;29;20048;-46
2023/06/18 07:08:47;;;;;;;30.08;15.93;;;;;;;17.07;100.00;100207.97;4914938;29;20044;-48
2023/06/18 07:11:14;;;;;;;28.67;16.20;;;;;;;17.13;100.00;100203.53;4914997;29;20067;-46
2023/06/18 07:13:41;;;;;;;32.40;16.88;;;;;;;17.19;100.00;100196.34;4912592;29;20036;-46
2023/06/18 07:16:08;;;;;;;26.15;14.98;;;;;;;17.27;100.00;100203.50;4897568;29;20052;-46
2023/06/18 07:18:35;;;;;;;22.42;14.82;;;;;;;17.38;100.00;100203.50;4914508;29;20476;-46
2023/06/18 07:21:01;;;;;;;28.52;16.10;;;;;;;17.48;100.00;100200.66;4914962;29;20051;-46
2023/06/18 07:23:28;;;;;;;22.33;13.95;;;;;;;17.60;100.00;100207.84;4914776;29;20048;-46
2023/06/18 07:25:55;;;;;;;21.10;13.77;;;;;;;17.68;100.00;100206.63;4911361;29;20050;-45
2023/06/18 07:28:22;;;;;;;21.10;13.85;;;;;;;17.74;100.00;100196.56;4914852;29;20044;-46
2023/06/18 07:30:49;;;;;;;24.55;15.43;;;;;;;17.73;99.71;100205.41;4914184;29;20047;-46
2023/06/18 07:33:16;;;;;;;23.58;14.77;;;;;;;17.66;99.66;100189.41;4914730;29;20059;-51
2023/06/18 07:35:43;;;;;;;23.48;17.25;;;;;;;17.61;99.58;100187.84;4914713;29;20158;-46
2023/06/18 07:38:09;;;;;;;23.25;14.02;;;;;;;17.62;99.74;100183.84;4914484;29;20078;-46
2023/06/18 07:40:38;;;;;;;21.05;14.02;;;;;;;17.65;99.55;100182.25;4914947;29;20051;-47
2023/06/18 07:43:05;;;;;;;22.65;14.98;;;;;;;17.66;99.58;100194.25;4914387;29;20056;-46
2023/06/18 07:45:32;;;;;;;19.75;13.45;;;;;;;17.62;99.37;100189.44;4914548;29;20054;-46
2023/06/18 07:47:58;;;;;;;20.42;12.90;;;;;;;17.63;99.26;100187.44;4914211;29;20047;-46
2023/06/18 07:50:25;;;;;;;18.98;12.43;;;;;;;17.63;99.28;100190.25;4914777;29;20083;-47
2023/06/18 07:52:52;;;;;;;18.50;11.82;;;;;;;17.59;98.99;100184.66;4914527;29;20055;-46
2023/06/18 07:55:19;;;;;;;19.77;11.70;;;;;;;17.58;98.99;100183.06;4914039;29;20079;-46
2023/06/18 07:57:46;;;;;;;14.10;11.10;;;;;;;17.56;98.53;100182.66;4914541;29;20044;-47
2023/06/18 08:00:13;;;;;;;15.25;11.10;;;;;;;17.58;98.69;100193.44;4911050;29;20048;-46
2023/06/18 08:02:40;;;;;;;16.67;10.65;;;;;;;17.60;98.58;100194.66;4913277;29;20056;-46
2023/06/18 08:05:07;;;;;;;16.20;11.25;;;;;;;17.60;98.11;100191.88;4903696;29;20088;-46
2023/06/18 08:07:35;;;;;;;16.42;10.75;;;;;;;17.61;98.01;100193.44;4914489;29;20048;-46
2023/06/18 08:10:02;;;;;;;14.07;10.70;;;;;;;17.64;98.01;100203.03;4913631;29;20525;-50
2023/06/18 08:12:30;;;;;;;14.68;10.23;;;;;;;17.66;97.72;100197.81;4918140;29;20067;-46
2023/06/18 08:14:57;;;;;;;15.13;10.95;;;;;;;17.65;97.06;100204.63;4917571;29;20044;-46
2023/06/18 08:17:25;;;;;;;15.82;10.68;;;;;;;17.64;96.75;100197.44;4917447;29;20083;-46
2023/06/18 08:19:52;;;;;;;16.63;10.55;;;;;;;17.61;96.69;100192.63;4916966;29;20044;-47
2023/06/18 08:22:18;;;;;;;15.80;10.25;;;;;;;17.56;96.55;100196.66;4917586;29;20517;-47
2023/06/18 08:24:45;;;;;;;16.45;11.27;;;;;;;17.57;96.66;100198.28;4917216;29;20747;-46
2023/06/18 08:27:15;;;;;;;18.70;12.23;;;;;;;17.61;96.28;100201.03;4916886;29;20467;-46
2023/06/18 08:29:42;;;;;;;15.60;10.50;;;;;;;17.63;96.17;100191.03;4917661;29;20052;-46
2023/06/18 08:32:08;;;;;;;17.85;11.52;;;;;;;17.74;96.28;100187.41;4917348;29;20059;-46
2023/06/18 08:34:42;;;;;;;19.02;12.25;;;;;;;17.88;95.83;100187.31;4917789;29;20048;-46
2023/06/18 08:37:10;;;;;;;17.20;9.93;;;;;;;18.02;95.88;100190.84;4916813;29;20075;-48
2023/06/18 08:39:37;;;;;;;12.60;9.05;;;;;;;18.19;95.43;100187.13;4916853;29;20044;-46
2023/06/18 08:42:06;;;;;;;15.25;11.25;;;;;;;18.40;95.29;100186.19;4917342;29;20048;-47
2023/06/18 08:44:36;;;;;;;12.73;8.32;;;;;;;18.72;94.66;100189.56;4917272;29;20052;-46
2023/06/18 08:47:03;;;;;;;13.70;8.18;;;;;;;19.32;94.63;100188.19;4905107;29;20107;-44
2023/06/18 08:49:31;;;;;;;12.73;8.70;;;;;;;20.03;93.76;100186.13;4917306;29;20048;-46
2023/06/18 08:52:02;;;;;;;10.48;7.82;;;;;;;21.07;92.69;100197.38;4914932;29;20142;-44
2023/06/18 08:54:33;;;;;;;11.48;7.80;;;;;;;21.76;90.50;100190.78;4916103;29;20060;-44
2023/06/18 08:57:16;;;;;;;9.48;7.75;;;;;;;22.01;89.22;100196.72;4900156;29;20048;-44
2023/06/18 08:59:44;;;;;;;11.07;7.30;;;;;;;22.24;88.21;100195.81;4916904;29;20055;-44
2023/06/18 09:02:15;;;;;;;6.53;5.10;;;;;;;22.56;87.56;100186.59;4917080;29;20056;-44
2023/06/18 09:04:43;;;;;;;8.68;5.80;;;;;;;23.21;85.90;100188.16;4917117;29;20371;-44
2023/06/18 09:07:09;;;;;;;5.88;5.03;;;;;;;23.91;83.15;100182.53;4916887;29;20495;-44
2023/06/18 09:09:36;;;;;;;10.68;6.95;;;;;;;24.32;79.76;100187.34;4914799;29;20047;-43
2023/06/18 09:12:04;;;;;;;9.05;6.43;;;;;;;24.07;77.78;100175.97;4916023;29;20443;-44
2023/06/18 09:14:31;;;;;;;7.50;6.22;;;;;;;24.05;76.89;100167.97;4916916;29;20050;-44
2023/06/18 09:16:58;;;;;;;11.40;8.25;;;;;;;24.17;75.77;100177.75;4916551;29;20052;-44
2023/06/18 09:19:25;;;;;;;9.35;7.30;;;;;;;24.45;73.96;100176.81;4916455;29;20103;-44
2023/06/18 09:21:52;;;;;;;9.38;7.13;;;;;;;24.38;72.59;100174.22;4916622;29;20047;-44
2023/06/18 09:24:21;;;;;;;10.38;7.88;;;;;;;23.87;71.51;100166.91;4899678;29;20602;-44
2023/06/18 09:27:01;;;;;;;12.20;8.45;;;;;;;23.36;73.38;100161.09;4916869;29;20052;-44
2023/06/18 09:29:31;;;;;;;9.73;6.80;;;;;;;23.26;72.70;100172.69;4915917;29;20094;-44
2023/06/18 09:32:09;;;;;;;10.02;8.52;;;;;;;23.75;71.44;100162.03;4916471;29;20064;-43
2023/06/18 09:34:37;;;;;;;9.57;8.20;;;;;;;23.70;70.29;100166.19;4916392;29;20056;-44
2023/06/18 09:37:05;;;;;;;7.68;6.50;;;;;;;23.77;69.96;100168.81;4899694;29;20091;-44
2023/06/18 09:39:35;;;;;;;8.43;6.85;;;;;;;24.06;68.38;100168.75;4915330;29;20491;-44
2023/06/18 09:42:07;;;;;;;7.13;5.72;;;;;;;24.32;68.21;100169.59;4899451;29;20052;-44
2023/06/18 09:44:34;;;;;;;7.97;6.50;;;;;;;24.56;66.66;100168.78;4914980;29;20048;-46
2023/06/18 09:47:03;;;;;;;8.88;6.95;;;;;;;24.38;66.58;100174.22;4915691;29;20046;-44
2023/06/18 09:49:30;;;;;;;7.32;6.07;;;;;;;23.98;66.96;100175.88;4916362;29;20044;-43
2023/06/18 09:51:57;;;;;;;7.70;4.93;;;;;;;24.09;67.20;100165.81;4916200;29;20048;-43
2023/06/18 09:54:38;;;;;;;7.43;6.38;;;;;;;23.97;66.82;100171.44;4916092;29;20044;-44
2023/06/18 09:57:06;;;;;;;5.97;5.20;;;;;;;23.84;66.52;100167.81;4916181;29;20407;-44
2023/06/18 09:59:33;;;;;;;5.75;5.18;;;;;;;23.58;66.72;100164.13;4915592;29;20643;-44
2023/06/18 10:02:00;;;;;;;7.50;5.45;;;;;;;23.21;67.11;100159.09;4912254;29;20071;-44
2023/06/18 10:04:27;;;;;;;5.72;4.90;;;;;;;22.94;67.52;100150.94;4914437;29;20704;-43
2023/06/18 10:06:58;;;;;;;5.63;5.00;;;;;;;22.95;67.56;100158.19;4916102;29;20048;-43
2023/06/18 10:09:39;;;;;;;6.40;4.97;;;;;;;22.72;67.34;100159.19;4914968;29;20107;-44
2023/06/18 10:12:07;;;;;;;7.45;5.20;;;;;;;22.35;68.12;100149.19;4915918;29;20147;-44
2023/06/18 10:14:34;;;;;;;5.88;5.28;;;;;;;22.16;68.61;100150.03;4915290;29;21265;-44
2023/06/18 10:17:08;;;;;;;5.55;5.05;;;;;;;22.12;69.21;100149.34;4915646;29;20132;-44
2023/06/18 10:19:47;;;;;;;6.28;5.18;;;;;;;22.12;69.28;100145.72;4915106;29;20139;-46
2023/06/18 10:22:17;;;;;;;7.00;5.72;;;;;;;21.98;69.47;100146.84;4915862;29;20040;-44
2023/06/18 10:25:00;;;;;;;6.80;6.15;;;;;;;22.07;69.42;100149.84;4915656;29;20147;-44
2023/06/18 10:27:28;;;;;;;5.80;5.05;;;;;;;22.08;69.19;100148.59;4915598;29;20056;-44
2023/06/18 10:29:58;;;;;;;7.85;5.88;;;;;;;22.07;69.12;100149.84;4915560;29;20080;-46
2023/06/18 10:32:27;;;;;;;10.18;7.82;;;;;;;22.00;69.20;100150.00;4915241;29;20048;-44
2023/06/18 10:35:00;;;;;;;9.52;7.28;;;;;;;21.95;69.78;100136.44;4914965;29;20099;-45
2023/06/18 10:37:30;;;;;;;8.68;6.47;;;;;;;22.00;69.64;100146.41;4914445;29;20047;-44
2023/06/18 10:39:58;;;;;;;8.73;6.13;;;;;;;22.10;69.60;100140.53;4913422;29;20581;-44
2023/06/18 10:42:24;;;;;;;7.65;6.10;;;;;;;22.16;69.40;100133.13;4914669;29;20067;-44
2023/06/18 10:44:57;;;;;;;7.88;5.88;;;;;;;22.11;69.31;100128.00;4915339;29;20040;-44
2023/06/18 10:47:31;;;;;;;5.72;4.93;;;;;;;22.07;69.70;100129.31;4915662;29;20103;-44
2023/06/18 10:50:07;;;;;;;5.05;4.10;;;;;;;22.02;69.87;100130.66;4915168;29;20494;-43
2023/06/18 10:52:44;;;;;;;4.70;4.03;;;;;;;21.94;70.26;100137.69;4914649;29;20052;-44
2023/06/18 10:55:20;;;;;;;6.00;4.90;;;;;;;21.97;70.06;100136.81;4902929;29;20099;-43
2023/06/18 10:57:50;;;;;;;5.07;4.25;;;;;;;21.97;69.96;100128.34;4914766;29;20059;-43
2023/06/18 11:00:19;;;;;;;7.50;4.82;;;;;;;22.05;69.86;100135.41;4915182;29;20047;-45
2023/06/18 11:02:49;;;;;;;4.72;4.15;;;;;;;21.97;69.97;100128.34;4914753;29;20062;-46
2023/06/18 11:05:32;;;;;;;5.57;4.70;;;;;;;21.98;70.07;100121.47;4915103;29;20044;-44
2023/06/18 11:08:05;;;;;;;5.53;3.38;;;;;;;22.13;69.96;100127.59;4914372;29;20044;-43
2023/06/18 11:10:37;;;;;;;5.07;3.85;;;;;;;22.19;69.54;100120.97;4914012;29;20080;-44
2023/06/18 11:13:06;;;;;;;4.65;3.80;;;;;;;22.17;69.71;100117.78;4903053;29;20044;-44
2023/06/18 11:15:34;;;;;;;4.30;3.90;;;;;;;22.14;69.76;100110.22;4897983;29;20075;-46
2023/06/18 11:18:02;;;;;;;4.25;3.85;;;;;;;22.13;69.77;100105.03;4914858;29;20040;-44